sensor_id;sensor_type;location;lat;lon;timestamp;P1;durP1;ratioP1;P2;durP2;ratioP2
18104;SDS011;9179;50.968;3.134;2022-09-30T00:00:18;8.55;;;7.60;;
18104;SDS011;9179;50.968;3.134;2022-09-30T00:02:45;8.60;;;8.00;;
18104;SDS011;9179;50.968;3.134;2022-09-30T00:05:12;8.45;;;7.75;;
18104;SDS011;9179;50.968;3.134;2022-09-30T00:07:39;8.95;;;8.25;;
18104;SDS011;9179;50.968;3.134;2022-09-30T00:10:06;9.00;;;8.20;;
18104;SDS011;9179;50.968;3.134;2022-09-30T00:12:33;8.95;;;8.18;;
18104;SDS011;9179;50.968;3.134;2022-09-30T00:15:02;8.30;;;7.70;;
18104;SDS011;9179;50.968;3.134;2022-09-30T00:17:29;9.82;;;9.00;;
18104;SDS011;9179;50.968;3.134;2022-09-30T00:19:56;9.73;;;8.93;;
18104;SDS011;9179;50.968;3.134;2022-09-30T00:22:23;10.40;;;9.55;;
18104;SDS011;9179;50.968;3.134;2022-09-30T00:24:50;9.45;;;8.65;;
18104;SDS011;9179;50.968;3.134;2022-09-30T00:27:17;10.10;;;9.25;;
18104;SDS011;9179;50.968;3.134;2022-09-30T00:29:44;9.60;;;8.80;;
18104;SDS011;9179;50.968;3.134;2022-09-30T00:32:13;8.77;;;8.07;;
18104;SDS011;9179;50.968;3.134;2022-09-30T00:34:39;9.95;;;9.02;;
18104;SDS011;9179;50.968;3.134;2022-09-30T00:37:06;8.57;;;7.88;;
18104;SDS011;9179;50.968;3.134;2022-09-30T00:39:35;9.43;;;8.70;;
18104;SDS011;9179;50.968;3.134;2022-09-30T00:42:03;9.48;;;8.68;;
18104;SDS011;9179;50.968;3.134;2022-09-30T00:44:52;9.18;;;8.55;;
18104;SDS011;9179;50.968;3.134;2022-09-30T00:47:35;9.75;;;8.85;;
18104;SDS011;9179;50.968;3.134;2022-09-30T00:50:14;8.80;;;8.10;;
18104;SDS011;9179;50.968;3.134;2022-09-30T00:52:47;9.18;;;8.52;;
18104;SDS011;9179;50.968;3.134;2022-09-30T00:55:22;10.95;;;9.93;;
18104;SDS011;9179;50.968;3.134;2022-09-30T00:57:54;9.10;;;8.50;;
18104;SDS011;9179;50.968;3.134;2022-09-30T01:00:24;8.35;;;7.65;;
18104;SDS011;9179;50.968;3.134;2022-09-30T01:02:52;9.02;;;8.32;;
18104;SDS011;9179;50.968;3.134;2022-09-30T01:05:20;9.55;;;8.75;;
18104;SDS011;9179;50.968;3.134;2022-09-30T01:07:49;9.95;;;9.15;;
18104;SDS011;9179;50.968;3.134;2022-09-30T01:10:16;9.65;;;8.90;;
18104;SDS011;9179;50.968;3.134;2022-09-30T01:12:43;10.73;;;9.05;;
18104;SDS011;9179;50.968;3.134;2022-09-30T01:15:10;8.98;;;8.27;;
18104;SDS011;9179;50.968;3.134;2022-09-30T01:17:40;8.82;;;8.13;;
18104;SDS011;9179;50.968;3.134;2022-09-30T01:23:15;9.63;;;8.93;;
18104;SDS011;9179;50.968;3.134;2022-09-30T01:26:12;9.38;;;8.57;;
18104;SDS011;9179;50.968;3.134;2022-09-30T01:31:55;10.00;;;9.20;;
18104;SDS011;9179;50.968;3.134;2022-09-30T01:34:31;9.88;;;9.07;;
18104;SDS011;9179;50.968;3.134;2022-09-30T01:37:07;9.63;;;8.73;;
18104;SDS011;9179;50.968;3.134;2022-09-30T01:39:48;9.35;;;8.48;;
18104;SDS011;9179;50.968;3.134;2022-09-30T01:42:22;9.65;;;8.95;;
18104;SDS011;9179;50.968;3.134;2022-09-30T01:44:54;7.82;;;7.32;;
18104;SDS011;9179;50.968;3.134;2022-09-30T01:47:29;8.82;;;8.07;;
18104;SDS011;9179;50.968;3.134;2022-09-30T01:50:00;8.52;;;7.72;;
18104;SDS011;9179;50.968;3.134;2022-09-30T01:52:32;10.10;;;9.20;;
18104;SDS011;9179;50.968;3.134;2022-09-30T01:55:06;9.00;;;8.20;;
18104;SDS011;9179;50.968;3.134;2022-09-30T01:57:41;9.30;;;8.50;;
18104;SDS011;9179;50.968;3.134;2022-09-30T02:00:13;8.43;;;7.72;;
18104;SDS011;9179;50.968;3.134;2022-09-30T02:02:43;8.93;;;8.23;;
18104;SDS011;9179;50.968;3.134;2022-09-30T02:05:15;8.90;;;8.20;;
18104;SDS011;9179;50.968;3.134;2022-09-30T02:07:46;10.27;;;9.18;;
18104;SDS011;9179;50.968;3.134;2022-09-30T02:10:18;9.68;;;8.77;;
18104;SDS011;9179;50.968;3.134;2022-09-30T02:12:49;9.52;;;8.68;;
18104;SDS011;9179;50.968;3.134;2022-09-30T02:15:21;10.60;;;9.80;;
18104;SDS011;9179;50.968;3.134;2022-09-30T02:17:52;9.60;;;8.80;;
18104;SDS011;9179;50.968;3.134;2022-09-30T02:20:23;8.90;;;8.10;;
18104;SDS011;9179;50.968;3.134;2022-09-30T02:22:54;8.68;;;8.05;;
18104;SDS011;9179;50.968;3.134;2022-09-30T02:25:28;9.25;;;8.52;;
18104;SDS011;9179;50.968;3.134;2022-09-30T02:28:00;8.90;;;8.20;;
18104;SDS011;9179;50.968;3.134;2022-09-30T02:30:32;9.10;;;8.40;;
18104;SDS011;9179;50.968;3.134;2022-09-30T02:33:03;10.30;;;9.40;;
18104;SDS011;9179;50.968;3.134;2022-09-30T02:35:36;10.38;;;9.55;;
18104;SDS011;9179;50.968;3.134;2022-09-30T02:38:08;11.00;;;10.10;;
18104;SDS011;9179;50.968;3.134;2022-09-30T02:40:40;9.90;;;9.10;;
18104;SDS011;9179;50.968;3.134;2022-09-30T02:43:12;9.23;;;8.32;;
18104;SDS011;9179;50.968;3.134;2022-09-30T02:45:42;9.27;;;8.43;;
18104;SDS011;9179;50.968;3.134;2022-09-30T02:48:17;9.50;;;8.88;;
18104;SDS011;9179;50.968;3.134;2022-09-30T02:50:51;10.73;;;9.43;;
18104;SDS011;9179;50.968;3.134;2022-09-30T02:53:24;10.73;;;9.82;;
18104;SDS011;9179;50.968;3.134;2022-09-30T02:56:05;9.32;;;8.52;;
18104;SDS011;9179;50.968;3.134;2022-09-30T02:58:37;8.52;;;7.93;;
18104;SDS011;9179;50.968;3.134;2022-09-30T03:01:05;9.63;;;8.68;;
18104;SDS011;9179;50.968;3.134;2022-09-30T03:03:37;9.32;;;8.52;;
18104;SDS011;9179;50.968;3.134;2022-09-30T03:06:07;8.82;;;8.13;;
18104;SDS011;9179;50.968;3.134;2022-09-30T03:08:35;11.45;;;8.82;;
18104;SDS011;9179;50.968;3.134;2022-09-30T03:11:02;9.15;;;8.40;;
18104;SDS011;9179;50.968;3.134;2022-09-30T03:13:36;9.95;;;9.10;;
18104;SDS011;9179;50.968;3.134;2022-09-30T03:16:21;8.00;;;7.50;;
18104;SDS011;9179;50.968;3.134;2022-09-30T03:19:05;10.27;;;9.38;;
18104;SDS011;9179;50.968;3.134;2022-09-30T03:21:49;10.23;;;9.15;;
18104;SDS011;9179;50.968;3.134;2022-09-30T03:27:27;12.05;;;11.02;;
18104;SDS011;9179;50.968;3.134;2022-09-30T03:30:00;10.63;;;9.80;;
18104;SDS011;9179;50.968;3.134;2022-09-30T03:32:32;10.45;;;9.55;;
18104;SDS011;9179;50.968;3.134;2022-09-30T03:35:16;11.23;;;10.23;;
18104;SDS011;9179;50.968;3.134;2022-09-30T03:37:53;11.30;;;10.27;;
18104;SDS011;9179;50.968;3.134;2022-09-30T03:40:28;10.10;;;9.27;;
18104;SDS011;9179;50.968;3.134;2022-09-30T03:43:03;11.20;;;10.20;;
18104;SDS011;9179;50.968;3.134;2022-09-30T03:45:34;11.00;;;10.07;;
18104;SDS011;9179;50.968;3.134;2022-09-30T03:48:05;9.95;;;8.95;;
18104;SDS011;9179;50.968;3.134;2022-09-30T03:50:36;9.75;;;8.95;;
18104;SDS011;9179;50.968;3.134;2022-09-30T03:53:07;10.85;;;9.95;;
18104;SDS011;9179;50.968;3.134;2022-09-30T03:55:42;11.50;;;10.50;;
18104;SDS011;9179;50.968;3.134;2022-09-30T03:58:13;11.90;;;10.80;;
18104;SDS011;9179;50.968;3.134;2022-09-30T04:00:40;11.68;;;10.68;;
18104;SDS011;9179;50.968;3.134;2022-09-30T04:03:12;10.88;;;9.98;;
18104;SDS011;9179;50.968;3.134;2022-09-30T04:05:41;12.52;;;11.43;;
18104;SDS011;9179;50.968;3.134;2022-09-30T04:08:08;12.45;;;10.65;;
18104;SDS011;9179;50.968;3.134;2022-09-30T04:10:35;12.70;;;11.50;;
18104;SDS011;9179;50.968;3.134;2022-09-30T04:13:04;11.95;;;10.80;;
18104;SDS011;9179;50.968;3.134;2022-09-30T04:15:31;11.73;;;10.70;;
18104;SDS011;9179;50.968;3.134;2022-09-30T04:17:57;12.25;;;11.23;;
18104;SDS011;9179;50.968;3.134;2022-09-30T04:20:24;11.20;;;10.20;;
18104;SDS011;9179;50.968;3.134;2022-09-30T04:22:53;11.50;;;10.32;;
18104;SDS011;9179;50.968;3.134;2022-09-30T04:25:22;14.95;;;13.45;;
18104;SDS011;9179;50.968;3.134;2022-09-30T04:27:49;111.35;;;65.60;;
18104;SDS011;9179;50.968;3.134;2022-09-30T04:30:16;92.32;;;58.97;;
18104;SDS011;9179;50.968;3.134;2022-09-30T04:32:43;67.38;;;46.85;;
18104;SDS011;9179;50.968;3.134;2022-09-30T04:35:10;59.03;;;40.45;;
18104;SDS011;9179;50.968;3.134;2022-09-30T04:37:40;32.08;;;24.42;;
18104;SDS011;9179;50.968;3.134;2022-09-30T04:40:10;26.45;;;21.73;;
18104;SDS011;9179;50.968;3.134;2022-09-30T04:42:37;21.40;;;16.52;;
18104;SDS011;9179;50.968;3.134;2022-09-30T04:45:06;15.50;;;14.10;;
18104;SDS011;9179;50.968;3.134;2022-09-30T04:47:34;14.25;;;12.82;;
18104;SDS011;9179;50.968;3.134;2022-09-30T04:50:00;13.73;;;12.32;;
18104;SDS011;9179;50.968;3.134;2022-09-30T04:52:27;12.88;;;11.57;;
18104;SDS011;9179;50.968;3.134;2022-09-30T04:54:54;13.10;;;11.80;;
18104;SDS011;9179;50.968;3.134;2022-09-30T04:57:24;11.73;;;10.65;;
18104;SDS011;9179;50.968;3.134;2022-09-30T04:59:51;13.15;;;12.05;;
18104;SDS011;9179;50.968;3.134;2022-09-30T05:02:18;11.98;;;10.77;;
18104;SDS011;9179;50.968;3.134;2022-09-30T05:04:45;12.13;;;11.02;;
18104;SDS011;9179;50.968;3.134;2022-09-30T05:07:12;13.05;;;11.95;;
18104;SDS011;9179;50.968;3.134;2022-09-30T05:09:38;11.75;;;10.80;;
18104;SDS011;9179;50.968;3.134;2022-09-30T05:12:05;10.88;;;9.93;;
18104;SDS011;9179;50.968;3.134;2022-09-30T05:14:33;11.88;;;10.82;;
18104;SDS011;9179;50.968;3.134;2022-09-30T05:17:00;11.00;;;10.05;;
18104;SDS011;9179;50.968;3.134;2022-09-30T05:19:28;11.90;;;10.93;;
18104;SDS011;9179;50.968;3.134;2022-09-30T05:21:55;11.52;;;10.45;;
18104;SDS011;9179;50.968;3.134;2022-09-30T05:24:22;11.85;;;10.68;;
18104;SDS011;9179;50.968;3.134;2022-09-30T05:26:49;12.02;;;10.13;;
18104;SDS011;9179;50.968;3.134;2022-09-30T05:29:16;12.82;;;11.63;;
18104;SDS011;9179;50.968;3.134;2022-09-30T05:31:44;11.90;;;10.90;;
18104;SDS011;9179;50.968;3.134;2022-09-30T05:34:11;11.52;;;10.43;;
18104;SDS011;9179;50.968;3.134;2022-09-30T05:36:40;10.77;;;9.95;;
18104;SDS011;9179;50.968;3.134;2022-09-30T05:39:08;10.50;;;9.70;;
18104;SDS011;9179;50.968;3.134;2022-09-30T05:41:35;10.68;;;9.85;;
18104;SDS011;9179;50.968;3.134;2022-09-30T05:44:02;9.82;;;9.02;;
18104;SDS011;9179;50.968;3.134;2022-09-30T05:46:29;10.73;;;9.82;;
18104;SDS011;9179;50.968;3.134;2022-09-30T05:48:57;10.13;;;9.32;;
18104;SDS011;9179;50.968;3.134;2022-09-30T05:51:24;10.77;;;9.88;;
18104;SDS011;9179;50.968;3.134;2022-09-30T05:53:52;10.02;;;9.13;;
18104;SDS011;9179;50.968;3.134;2022-09-30T05:56:18;9.13;;;8.38;;
18104;SDS011;9179;50.968;3.134;2022-09-30T05:58:45;10.60;;;9.60;;
18104;SDS011;9179;50.968;3.134;2022-09-30T06:01:14;10.40;;;9.60;;
18104;SDS011;9179;50.968;3.134;2022-09-30T06:03:42;9.90;;;9.15;;
18104;SDS011;9179;50.968;3.134;2022-09-30T06:06:11;9.77;;;8.98;;
18104;SDS011;9179;50.968;3.134;2022-09-30T06:08:39;10.13;;;8.70;;
18104;SDS011;9179;50.968;3.134;2022-09-30T06:11:08;10.55;;;9.55;;
18104;SDS011;9179;50.968;3.134;2022-09-30T06:13:37;11.05;;;10.05;;
18104;SDS011;9179;50.968;3.134;2022-09-30T06:16:05;11.88;;;10.88;;
18104;SDS011;9179;50.968;3.134;2022-09-30T06:18:33;10.82;;;10.02;;
18104;SDS011;9179;50.968;3.134;2022-09-30T06:21:02;10.43;;;9.52;;
18104;SDS011;9179;50.968;3.134;2022-09-30T06:23:31;11.75;;;10.73;;
18104;SDS011;9179;50.968;3.134;2022-09-30T06:25:59;11.40;;;10.15;;
18104;SDS011;9179;50.968;3.134;2022-09-30T06:28:27;11.55;;;10.52;;
18104;SDS011;9179;50.968;3.134;2022-09-30T06:30:54;10.98;;;9.98;;
18104;SDS011;9179;50.968;3.134;2022-09-30T06:33:21;12.43;;;10.85;;
18104;SDS011;9179;50.968;3.134;2022-09-30T06:35:49;12.27;;;11.07;;
18104;SDS011;9179;50.968;3.134;2022-09-30T06:38:16;11.43;;;10.32;;
18104;SDS011;9179;50.968;3.134;2022-09-30T06:40:44;10.43;;;9.35;;
18104;SDS011;9179;50.968;3.134;2022-09-30T06:43:14;19.63;;;9.55;;
18104;SDS011;9179;50.968;3.134;2022-09-30T06:45:41;9.15;;;8.40;;
18104;SDS011;9179;50.968;3.134;2022-09-30T06:48:10;9.25;;;8.35;;
18104;SDS011;9179;50.968;3.134;2022-09-30T06:50:37;9.98;;;8.85;;
18104;SDS011;9179;50.968;3.134;2022-09-30T06:53:05;9.77;;;8.93;;
18104;SDS011;9179;50.968;3.134;2022-09-30T06:55:33;9.15;;;8.35;;
18104;SDS011;9179;50.968;3.134;2022-09-30T06:58:04;9.18;;;8.27;;
18104;SDS011;9179;50.968;3.134;2022-09-30T07:00:35;8.63;;;7.72;;
18104;SDS011;9179;50.968;3.134;2022-09-30T07:03:02;7.43;;;6.75;;
18104;SDS011;9179;50.968;3.134;2022-09-30T07:05:33;7.30;;;6.35;;
18104;SDS011;9179;50.968;3.134;2022-09-30T07:08:00;7.85;;;7.15;;
18104;SDS011;9179;50.968;3.134;2022-09-30T07:10:27;8.85;;;6.50;;
18104;SDS011;9179;50.968;3.134;2022-09-30T07:12:54;6.68;;;6.07;;
18104;SDS011;9179;50.968;3.134;2022-09-30T07:15:22;6.82;;;6.22;;
18104;SDS011;9179;50.968;3.134;2022-09-30T07:17:50;7.22;;;6.28;;
18104;SDS011;9179;50.968;3.134;2022-09-30T07:20:17;7.40;;;5.93;;
18104;SDS011;9179;50.968;3.134;2022-09-30T07:22:45;6.10;;;5.55;;
18104;SDS011;9179;50.968;3.134;2022-09-30T07:25:12;7.10;;;6.03;;
18104;SDS011;9179;50.968;3.134;2022-09-30T07:27:40;6.55;;;6.03;;
18104;SDS011;9179;50.968;3.134;2022-09-30T07:30:07;6.85;;;5.70;;
18104;SDS011;9179;50.968;3.134;2022-09-30T07:32:36;8.50;;;6.50;;
18104;SDS011;9179;50.968;3.134;2022-09-30T07:35:04;10.23;;;6.72;;
18104;SDS011;9179;50.968;3.134;2022-09-30T07:37:31;6.25;;;5.47;;
18104;SDS011;9179;50.968;3.134;2022-09-30T07:40:00;6.75;;;6.07;;
18104;SDS011;9179;50.968;3.134;2022-09-30T07:42:29;6.22;;;5.68;;
18104;SDS011;9179;50.968;3.134;2022-09-30T07:44:56;7.20;;;6.30;;
18104;SDS011;9179;50.968;3.134;2022-09-30T07:47:23;7.93;;;5.93;;
18104;SDS011;9179;50.968;3.134;2022-09-30T07:49:52;10.98;;;7.70;;
18104;SDS011;9179;50.968;3.134;2022-09-30T07:52:19;6.68;;;5.97;;
18104;SDS011;9179;50.968;3.134;2022-09-30T07:54:45;6.97;;;6.28;;
18104;SDS011;9179;50.968;3.134;2022-09-30T07:57:12;6.32;;;5.72;;
18104;SDS011;9179;50.968;3.134;2022-09-30T07:59:39;7.47;;;6.75;;
18104;SDS011;9179;50.968;3.134;2022-09-30T08:02:09;6.88;;;6.38;;
18104;SDS011;9179;50.968;3.134;2022-09-30T08:04:38;6.88;;;6.22;;
18104;SDS011;9179;50.968;3.134;2022-09-30T08:07:07;8.82;;;6.72;;
18104;SDS011;9179;50.968;3.134;2022-09-30T08:09:34;6.93;;;6.28;;
18104;SDS011;9179;50.968;3.134;2022-09-30T08:12:00;7.70;;;7.00;;
18104;SDS011;9179;50.968;3.134;2022-09-30T08:14:29;7.72;;;6.93;;
18104;SDS011;9179;50.968;3.134;2022-09-30T08:16:56;7.15;;;6.45;;
18104;SDS011;9179;50.968;3.134;2022-09-30T08:19:24;7.38;;;6.68;;
18104;SDS011;9179;50.968;3.134;2022-09-30T08:21:52;7.22;;;6.55;;
18104;SDS011;9179;50.968;3.134;2022-09-30T08:24:21;7.55;;;6.85;;
18104;SDS011;9179;50.968;3.134;2022-09-30T08:26:48;6.60;;;5.75;;
18104;SDS011;9179;50.968;3.134;2022-09-30T08:29:15;7.10;;;6.50;;
18104;SDS011;9179;50.968;3.134;2022-09-30T08:31:42;8.35;;;6.28;;
18104;SDS011;9179;50.968;3.134;2022-09-30T08:34:09;6.97;;;6.07;;
18104;SDS011;9179;50.968;3.134;2022-09-30T08:36:36;5.90;;;5.40;;
18104;SDS011;9179;50.968;3.134;2022-09-30T08:39:03;5.72;;;5.20;;
18104;SDS011;9179;50.968;3.134;2022-09-30T08:41:45;6.28;;;5.78;;
18104;SDS011;9179;50.968;3.134;2022-09-30T08:44:24;6.55;;;5.95;;
18104;SDS011;9179;50.968;3.134;2022-09-30T08:47:09;6.10;;;5.50;;
18104;SDS011;9179;50.968;3.134;2022-09-30T08:49:53;5.93;;;5.43;;
18104;SDS011;9179;50.968;3.134;2022-09-30T08:52:28;6.53;;;5.97;;
18104;SDS011;9179;50.968;3.134;2022-09-30T08:54:58;6.50;;;5.95;;
18104;SDS011;9179;50.968;3.134;2022-09-30T08:57:31;6.25;;;5.75;;
18104;SDS011;9179;50.968;3.134;2022-09-30T09:00:03;6.38;;;5.80;;
18104;SDS011;9179;50.968;3.134;2022-09-30T09:02:36;6.25;;;5.70;;
18104;SDS011;9179;50.968;3.134;2022-09-30T09:05:10;6.72;;;6.13;;
18104;SDS011;9179;50.968;3.134;2022-09-30T09:07:46;6.72;;;6.03;;
18104;SDS011;9179;50.968;3.134;2022-09-30T09:10:20;6.72;;;5.97;;
18104;SDS011;9179;50.968;3.134;2022-09-30T09:12:57;6.70;;;5.80;;
18104;SDS011;9179;50.968;3.134;2022-09-30T09:15:35;6.10;;;5.47;;
18104;SDS011;9179;50.968;3.134;2022-09-30T09:18:15;5.90;;;5.38;;
18104;SDS011;9179;50.968;3.134;2022-09-30T09:21:07;5.63;;;5.13;;
18104;SDS011;9179;50.968;3.134;2022-09-30T09:23:52;6.60;;;6.13;;
18104;SDS011;9179;50.968;3.134;2022-09-30T09:26:22;6.50;;;6.00;;
18104;SDS011;9179;50.968;3.134;2022-09-30T09:29:02;5.68;;;5.18;;
18104;SDS011;9179;50.968;3.134;2022-09-30T09:31:40;6.13;;;5.60;;
18104;SDS011;9179;50.968;3.134;2022-09-30T09:34:08;5.72;;;5.22;;
18104;SDS011;9179;50.968;3.134;2022-09-30T09:36:41;5.85;;;5.32;;
18104;SDS011;9179;50.968;3.134;2022-09-30T09:39:28;5.95;;;5.40;;
18104;SDS011;9179;50.968;3.134;2022-09-30T09:42:28;5.60;;;5.10;;
18104;SDS011;9179;50.968;3.134;2022-09-30T09:45:04;5.65;;;5.25;;
18104;SDS011;9179;50.968;3.134;2022-09-30T09:47:37;6.38;;;5.68;;
18104;SDS011;9179;50.968;3.134;2022-09-30T09:50:07;5.47;;;4.97;;
18104;SDS011;9179;50.968;3.134;2022-09-30T09:52:55;5.63;;;5.10;;
18104;SDS011;9179;50.968;3.134;2022-09-30T09:55:30;6.35;;;5.85;;
18104;SDS011;9179;50.968;3.134;2022-09-30T10:00:43;5.20;;;4.80;;
18104;SDS011;9179;50.968;3.134;2022-09-30T10:03:27;6.70;;;5.38;;
18104;SDS011;9179;50.968;3.134;2022-09-30T10:05:58;5.10;;;4.70;;
18104;SDS011;9179;50.968;3.134;2022-09-30T10:08:27;5.18;;;4.65;;
18104;SDS011;9179;50.968;3.134;2022-09-30T10:10:57;6.22;;;5.63;;
18104;SDS011;9179;50.968;3.134;2022-09-30T10:13:26;7.13;;;5.30;;
18104;SDS011;9179;50.968;3.134;2022-09-30T10:15:56;5.70;;;5.20;;
18104;SDS011;9179;50.968;3.134;2022-09-30T10:18:27;5.05;;;4.65;;
18104;SDS011;9179;50.968;3.134;2022-09-30T10:20:57;5.30;;;4.57;;
18104;SDS011;9179;50.968;3.134;2022-09-30T10:23:27;5.03;;;4.53;;
18104;SDS011;9179;50.968;3.134;2022-09-30T10:25:57;4.30;;;4.00;;
18104;SDS011;9179;50.968;3.134;2022-09-30T10:28:33;4.18;;;3.88;;
18104;SDS011;9179;50.968;3.134;2022-09-30T10:31:12;4.10;;;3.80;;
18104;SDS011;9179;50.968;3.134;2022-09-30T10:33:42;3.80;;;3.50;;
18104;SDS011;9179;50.968;3.134;2022-09-30T10:36:14;5.50;;;4.93;;
18104;SDS011;9179;50.968;3.134;2022-09-30T10:41:31;4.85;;;4.55;;
18104;SDS011;9179;50.968;3.134;2022-09-30T10:44:00;4.78;;;4.38;;
18104;SDS011;9179;50.968;3.134;2022-09-30T10:46:32;5.28;;;4.78;;
18104;SDS011;9179;50.968;3.134;2022-09-30T10:49:06;4.90;;;4.60;;
18104;SDS011;9179;50.968;3.134;2022-09-30T10:51:36;5.15;;;4.80;;
18104;SDS011;9179;50.968;3.134;2022-09-30T10:54:05;5.40;;;5.00;;
18104;SDS011;9179;50.968;3.134;2022-09-30T10:56:52;4.72;;;4.28;;
18104;SDS011;9179;50.968;3.134;2022-09-30T10:59:29;5.07;;;4.68;;
18104;SDS011;9179;50.968;3.134;2022-09-30T11:02:02;5.13;;;4.72;;
18104;SDS011;9179;50.968;3.134;2022-09-30T11:04:43;4.32;;;4.03;;
18104;SDS011;9179;50.968;3.134;2022-09-30T11:07:19;3.88;;;3.40;;
18104;SDS011;9179;50.968;3.134;2022-09-30T11:09:52;4.35;;;3.95;;
18104;SDS011;9179;50.968;3.134;2022-09-30T11:12:27;3.75;;;3.53;;
18104;SDS011;9179;50.968;3.134;2022-09-30T11:15:02;4.00;;;3.70;;
18104;SDS011;9179;50.968;3.134;2022-09-30T11:17:37;3.70;;;3.40;;
18104;SDS011;9179;50.968;3.134;2022-09-30T11:20:13;4.88;;;4.15;;
18104;SDS011;9179;50.968;3.134;2022-09-30T11:22:46;4.05;;;3.75;;
18104;SDS011;9179;50.968;3.134;2022-09-30T11:25:18;4.50;;;4.10;;
18104;SDS011;9179;50.968;3.134;2022-09-30T11:27:56;4.22;;;3.78;;
18104;SDS011;9179;50.968;3.134;2022-09-30T11:30:47;3.70;;;3.40;;
18104;SDS011;9179;50.968;3.134;2022-09-30T11:33:30;4.20;;;3.83;;
18104;SDS011;9179;50.968;3.134;2022-09-30T11:36:08;4.47;;;4.18;;
18104;SDS011;9179;50.968;3.134;2022-09-30T11:38:44;4.30;;;4.00;;
18104;SDS011;9179;50.968;3.134;2022-09-30T11:41:21;4.82;;;4.53;;
18104;SDS011;9179;50.968;3.134;2022-09-30T11:43:56;5.18;;;4.68;;
18104;SDS011;9179;50.968;3.134;2022-09-30T11:49:39;4.15;;;3.80;;
18104;SDS011;9179;50.968;3.134;2022-09-30T11:52:20;3.95;;;2.90;;
18104;SDS011;9179;50.968;3.134;2022-09-30T11:54:59;3.25;;;2.50;;
18104;SDS011;9179;50.968;3.134;2022-09-30T11:57:47;2.70;;;2.47;;
18104;SDS011;9179;50.968;3.134;2022-09-30T12:00:20;4.70;;;2.47;;
18104;SDS011;9179;50.968;3.134;2022-09-30T12:02:49;2.35;;;2.13;;
18104;SDS011;9179;50.968;3.134;2022-09-30T12:05:21;2.72;;;1.90;;
18104;SDS011;9179;50.968;3.134;2022-09-30T12:07:52;2.22;;;2.13;;
18104;SDS011;9179;50.968;3.134;2022-09-30T12:10:24;2.58;;;2.38;;
18104;SDS011;9179;50.968;3.134;2022-09-30T12:12:57;2.60;;;2.40;;
18104;SDS011;9179;50.968;3.134;2022-09-30T12:15:28;3.40;;;1.95;;
18104;SDS011;9179;50.968;3.134;2022-09-30T12:17:57;4.32;;;2.03;;
18104;SDS011;9179;50.968;3.134;2022-09-30T12:20:29;1.70;;;1.60;;
18104;SDS011;9179;50.968;3.134;2022-09-30T12:23:00;2.00;;;1.70;;
18104;SDS011;9179;50.968;3.134;2022-09-30T12:25:36;2.72;;;1.80;;
18104;SDS011;9179;50.968;3.134;2022-09-30T12:28:07;1.42;;;1.42;;
18104;SDS011;9179;50.968;3.134;2022-09-30T12:31:06;2.55;;;2.30;;
18104;SDS011;9179;50.968;3.134;2022-09-30T12:33:49;2.50;;;1.83;;
18104;SDS011;9179;50.968;3.134;2022-09-30T12:36:40;2.08;;;1.70;;
18104;SDS011;9179;50.968;3.134;2022-09-30T12:39:32;5.13;;;1.77;;
18104;SDS011;9179;50.968;3.134;2022-09-30T12:42:28;1.88;;;1.77;;
18104;SDS011;9179;50.968;3.134;2022-09-30T12:48:22;1.70;;;1.60;;
18104;SDS011;9179;50.968;3.134;2022-09-30T12:50:54;3.42;;;1.83;;
18104;SDS011;9179;50.968;3.134;2022-09-30T12:53:24;3.10;;;1.85;;
18104;SDS011;9179;50.968;3.134;2022-09-30T12:55:54;2.00;;;1.90;;
18104;SDS011;9179;50.968;3.134;2022-09-30T12:58:30;2.58;;;1.77;;
18104;SDS011;9179;50.968;3.134;2022-09-30T13:00:59;2.70;;;1.90;;
18104;SDS011;9179;50.968;3.134;2022-09-30T13:03:42;2.10;;;1.90;;
18104;SDS011;9179;50.968;3.134;2022-09-30T13:09:35;8.43;;;5.53;;
18104;SDS011;9179;50.968;3.134;2022-09-30T13:12:23;2.45;;;1.80;;
18104;SDS011;9179;50.968;3.134;2022-09-30T13:21:17;2.30;;;1.95;;
18104;SDS011;9179;50.968;3.134;2022-09-30T13:23:46;2.22;;;1.83;;
18104;SDS011;9179;50.968;3.134;2022-09-30T13:26:35;2.00;;;1.60;;
18104;SDS011;9179;50.968;3.134;2022-09-30T13:34:56;1.63;;;1.52;;
18104;SDS011;9179;50.968;3.134;2022-09-30T13:37:36;2.13;;;2.03;;
18104;SDS011;9179;50.968;3.134;2022-09-30T13:42:52;2.30;;;1.73;;
18104;SDS011;9179;50.968;3.134;2022-09-30T13:45:22;3.03;;;2.10;;
18104;SDS011;9179;50.968;3.134;2022-09-30T13:48:00;2.22;;;1.90;;
18104;SDS011;9179;50.968;3.134;2022-09-30T13:50:36;2.97;;;2.30;;
18104;SDS011;9179;50.968;3.134;2022-09-30T13:53:15;1.95;;;1.70;;
18104;SDS011;9179;50.968;3.134;2022-09-30T13:55:47;1.85;;;1.75;;
18104;SDS011;9179;50.968;3.134;2022-09-30T13:58:28;2.95;;;1.67;;
18104;SDS011;9179;50.968;3.134;2022-09-30T14:01:07;1.40;;;1.40;;
18104;SDS011;9179;50.968;3.134;2022-09-30T14:03:49;1.50;;;1.40;;
18104;SDS011;9179;50.968;3.134;2022-09-30T14:06:30;2.05;;;1.85;;
18104;SDS011;9179;50.968;3.134;2022-09-30T14:09:12;1.65;;;1.55;;
18104;SDS011;9179;50.968;3.134;2022-09-30T14:11:57;1.83;;;1.73;;
18104;SDS011;9179;50.968;3.134;2022-09-30T14:17:36;1.40;;;1.30;;
18104;SDS011;9179;50.968;3.134;2022-09-30T14:20:16;2.83;;;1.67;;
18104;SDS011;9179;50.968;3.134;2022-09-30T14:23:02;2.38;;;2.10;;
18104;SDS011;9179;50.968;3.134;2022-09-30T14:25:38;2.13;;;1.60;;
18104;SDS011;9179;50.968;3.134;2022-09-30T14:28:10;3.20;;;1.83;;
18104;SDS011;9179;50.968;3.134;2022-09-30T14:30:41;1.70;;;1.60;;
18104;SDS011;9179;50.968;3.134;2022-09-30T14:33:29;2.08;;;1.88;;
18104;SDS011;9179;50.968;3.134;2022-09-30T14:35:59;1.40;;;1.30;;
18104;SDS011;9179;50.968;3.134;2022-09-30T14:38:27;1.40;;;1.30;;
18104;SDS011;9179;50.968;3.134;2022-09-30T14:40:59;1.63;;;1.25;;
18104;SDS011;9179;50.968;3.134;2022-09-30T14:43:32;1.52;;;1.42;;
18104;SDS011;9179;50.968;3.134;2022-09-30T14:46:04;1.10;;;1.10;;
18104;SDS011;9179;50.968;3.134;2022-09-30T14:48:37;2.63;;;1.90;;
18104;SDS011;9179;50.968;3.134;2022-09-30T14:51:07;2.13;;;1.92;;
18104;SDS011;9179;50.968;3.134;2022-09-30T14:53:37;1.60;;;1.50;;
18104;SDS011;9179;50.968;3.134;2022-09-30T14:56:14;1.73;;;1.60;;
18104;SDS011;9179;50.968;3.134;2022-09-30T14:58:46;1.75;;;1.50;;
18104;SDS011;9179;50.968;3.134;2022-09-30T15:01:18;1.50;;;1.40;;
18104;SDS011;9179;50.968;3.134;2022-09-30T15:03:47;2.45;;;2.17;;
18104;SDS011;9179;50.968;3.134;2022-09-30T15:06:20;1.88;;;1.63;;
18104;SDS011;9179;50.968;3.134;2022-09-30T15:08:49;2.35;;;1.77;;
18104;SDS011;9179;50.968;3.134;2022-09-30T15:11:25;1.70;;;1.60;;
18104;SDS011;9179;50.968;3.134;2022-09-30T15:13:56;2.08;;;1.90;;
18104;SDS011;9179;50.968;3.134;2022-09-30T15:16:30;1.80;;;1.70;;
18104;SDS011;9179;50.968;3.134;2022-09-30T15:19:11;1.98;;;1.88;;
18104;SDS011;9179;50.968;3.134;2022-09-30T15:21:44;2.65;;;1.85;;
18104;SDS011;9179;50.968;3.134;2022-09-30T15:24:13;1.88;;;1.77;;
18104;SDS011;9179;50.968;3.134;2022-09-30T15:26:41;2.45;;;2.22;;
18104;SDS011;9179;50.968;3.134;2022-09-30T15:29:11;2.83;;;1.95;;
18104;SDS011;9179;50.968;3.134;2022-09-30T15:31:42;1.65;;;1.50;;
18104;SDS011;9179;50.968;3.134;2022-09-30T15:34:14;1.50;;;1.40;;
18104;SDS011;9179;50.968;3.134;2022-09-30T15:36:43;1.67;;;1.50;;
18104;SDS011;9179;50.968;3.134;2022-09-30T15:39:17;3.13;;;1.88;;
18104;SDS011;9179;50.968;3.134;2022-09-30T15:41:47;1.92;;;1.83;;
18104;SDS011;9179;50.968;3.134;2022-09-30T15:44:16;1.98;;;1.67;;
18104;SDS011;9179;50.968;3.134;2022-09-30T15:49:45;1.60;;;1.50;;
18104;SDS011;9179;50.968;3.134;2022-09-30T15:52:25;1.98;;;1.88;;
18104;SDS011;9179;50.968;3.134;2022-09-30T15:54:54;2.20;;;2.05;;
18104;SDS011;9179;50.968;3.134;2022-09-30T16:03:23;2.63;;;2.42;;
18104;SDS011;9179;50.968;3.134;2022-09-30T16:05:52;4.95;;;2.53;;
18104;SDS011;9179;50.968;3.134;2022-09-30T16:08:30;1.80;;;1.70;;
18104;SDS011;9179;50.968;3.134;2022-09-30T16:11:03;2.15;;;2.05;;
18104;SDS011;9179;50.968;3.134;2022-09-30T16:13:40;2.42;;;2.30;;
18104;SDS011;9179;50.968;3.134;2022-09-30T16:16:12;2.42;;;2.30;;